createdAt,value
2022-08-30T00:00:56.735Z,4.93
2022-08-30T00:04:00.453Z,4.65
2022-08-30T00:07:03.782Z,4.20
2022-08-30T00:10:07.087Z,4.35
2022-08-30T00:13:12.243Z,4.25
2022-08-30T00:16:14.846Z,4.68
2022-08-30T00:19:17.102Z,4.65
2022-08-30T00:22:19.516Z,4.32
2022-08-30T00:25:22.714Z,4.30
2022-08-30T00:28:26.231Z,4.68
2022-08-30T00:31:28.419Z,4.60
2022-08-30T00:34:31.617Z,3.95
2022-08-30T00:37:33.930Z,4.50
2022-08-30T00:40:37.853Z,4.90
2022-08-30T00:43:40.056Z,4.45
2022-08-30T00:46:42.837Z,4.30
2022-08-30T00:49:52.668Z,4.12
2022-08-30T00:52:59.984Z,4.30
2022-08-30T00:56:03.327Z,4.47
2022-08-30T00:59:07.667Z,4.78
2022-08-30T01:02:10.431Z,4.55
2022-08-30T01:05:15.997Z,4.45
2022-08-30T01:08:20.410Z,4.53
2022-08-30T01:11:24.632Z,4.57
2022-08-30T01:14:27.681Z,3.95
2022-08-30T01:17:30.506Z,4.53
2022-08-30T01:21:01.305Z,4.50
2022-08-30T01:24:05.470Z,4.35
2022-08-30T01:27:07.613Z,4.50
2022-08-30T01:30:11.117Z,4.65
2022-08-30T01:33:13.337Z,5.32
2022-08-30T01:36:17.265Z,5.05
2022-08-30T01:39:19.478Z,4.97
2022-08-30T01:42:23.179Z,5.05
2022-08-30T01:45:25.787Z,4.72
2022-08-30T01:48:31.054Z,4.70
2022-08-30T01:51:33.760Z,5.30
2022-08-30T01:54:40.076Z,4.75
2022-08-30T01:57:42.301Z,4.57
2022-08-30T02:00:45.239Z,4.45
2022-08-30T02:03:48.392Z,5.00
2022-08-30T02:06:51.240Z,4.87
2022-08-30T02:09:53.875Z,4.93
2022-08-30T02:12:56.538Z,4.97
2022-08-30T02:16:01.217Z,5.70
2022-08-30T02:19:03.711Z,5.30
2022-08-30T02:22:07.063Z,5.40
2022-08-30T02:25:11.219Z,4.68
2022-08-30T02:28:23.594Z,4.90
2022-08-30T02:31:27.119Z,5.20
2022-08-30T02:34:29.445Z,4.87
2022-08-30T02:37:31.835Z,5.22
2022-08-30T02:40:34.642Z,5.30
2022-08-30T02:43:39.699Z,5.40
2022-08-30T02:46:41.943Z,5.40
2022-08-30T02:49:44.394Z,5.53
2022-08-30T02:52:48.276Z,5.50
2022-08-30T02:55:50.923Z,5.45
2022-08-30T02:58:53.632Z,5.57
2022-08-30T03:01:56.070Z,5.35
2022-08-30T03:04:58.709Z,4.80
2022-08-30T03:08:01.329Z,5.25
2022-08-30T03:11:05.111Z,5.45
2022-08-30T03:14:07.729Z,5.78
2022-08-30T03:17:12.741Z,4.78
2022-08-30T03:20:18.470Z,5.10
2022-08-30T03:23:21.593Z,5.72
2022-08-30T03:26:24.367Z,6.32
2022-08-30T03:29:26.541Z,5.65
2022-08-30T03:32:30.991Z,5.32
2022-08-30T03:35:33.336Z,5.55
2022-08-30T03:38:36.091Z,5.60
2022-08-30T03:41:38.776Z,5.50
2022-08-30T03:44:41.764Z,5.65
2022-08-30T03:47:44.440Z,5.43
2022-08-30T03:50:46.925Z,5.62
2022-08-30T03:53:49.842Z,4.97
2022-08-30T03:56:52.517Z,6.00
2022-08-30T03:59:54.729Z,5.12
2022-08-30T04:02:57.205Z,5.30
2022-08-30T04:06:00.936Z,6.12
2022-08-30T04:09:04.897Z,5.85
2022-08-30T04:12:07.644Z,7.55
2022-08-30T04:15:11.284Z,6.65
2022-08-30T04:18:13.914Z,6.18
2022-08-30T04:21:17.034Z,6.57
2022-08-30T04:24:19.504Z,7.15
2022-08-30T04:27:21.718Z,5.90
2022-08-30T04:30:25.588Z,5.55
2022-08-30T04:33:28.421Z,6.43
2022-08-30T04:36:30.836Z,5.75
2022-08-30T04:39:33.160Z,5.68
2022-08-30T04:42:38.630Z,5.40
2022-08-30T04:45:41.552Z,5.57
2022-08-30T04:48:45.043Z,5.50
2022-08-30T04:51:47.259Z,5.80
2022-08-30T04:54:57.391Z,5.03
2022-08-30T04:58:00.749Z,5.30
2022-08-30T05:01:03.848Z,5.55
2022-08-30T05:04:07.182Z,5.60
2022-08-30T05:07:09.645Z,5.62
2022-08-30T05:10:11.934Z,5.05
2022-08-30T05:13:16.972Z,5.12
2022-08-30T05:16:19.807Z,5.57
2022-08-30T05:19:23.508Z,4.75
2022-08-30T05:22:25.883Z,5.43
2022-08-30T05:25:36.103Z,6.03
2022-08-30T05:28:38.477Z,6.00
2022-08-30T05:31:41.120Z,5.30
2022-08-30T05:34:46.286Z,4.90
2022-08-30T05:37:48.753Z,5.32
2022-08-30T05:40:50.914Z,4.80
2022-08-30T05:43:56.120Z,6.03
2022-08-30T05:46:58.319Z,5.75
2022-08-30T05:50:00.729Z,7.90
2022-08-30T05:53:02.935Z,5.45
2022-08-30T05:56:09.599Z,4.65
2022-08-30T05:59:12.955Z,4.80
2022-08-30T06:02:15.400Z,4.93
2022-08-30T06:05:17.991Z,4.75
2022-08-30T06:08:20.717Z,5.40
2022-08-30T06:11:25.352Z,4.75
2022-08-30T06:14:28.775Z,3.95
2022-08-30T06:17:31.320Z,4.35
2022-08-30T06:20:33.532Z,4.45
2022-08-30T06:23:36.006Z,3.95
2022-08-30T06:26:41.518Z,4.22
2022-08-30T06:29:44.021Z,4.18
2022-08-30T06:32:46.255Z,3.97
2022-08-30T06:35:58.316Z,4.43
2022-08-30T06:39:02.028Z,4.20
2022-08-30T06:42:05.315Z,4.35
2022-08-30T06:45:10.426Z,4.32
2022-08-30T06:48:15.383Z,4.37
2022-08-30T06:51:28.809Z,4.53
2022-08-30T06:54:34.437Z,4.15
2022-08-30T06:57:36.893Z,4.07
2022-08-30T07:00:41.793Z,4.20
2022-08-30T07:03:44.659Z,3.65
2022-08-30T07:06:47.143Z,3.35
2022-08-30T07:09:52.931Z,3.22
2022-08-30T07:12:55.444Z,3.20
2022-08-30T07:15:58.030Z,3.75
2022-08-30T07:19:02.846Z,3.03
2022-08-30T07:22:06.188Z,3.50
2022-08-30T07:25:10.301Z,3.42
2022-08-30T07:28:13.076Z,3.00
2022-08-30T07:31:19.940Z,3.20
2022-08-30T07:34:23.412Z,2.92
2022-08-30T07:37:28.058Z,2.78
2022-08-30T07:40:30.819Z,2.83
2022-08-30T07:43:34.604Z,2.90
2022-08-30T07:46:41.460Z,3.22
2022-08-30T07:49:44.819Z,3.10
2022-08-30T07:52:47.184Z,3.28
2022-08-30T07:55:49.752Z,3.08
2022-08-30T07:58:52.723Z,3.80
2022-08-30T08:01:55.245Z,2.97
2022-08-30T08:04:57.739Z,3.22
2022-08-30T08:07:59.853Z,3.53
2022-08-30T08:11:16.583Z,3.40
2022-08-30T08:14:18.907Z,3.40
2022-08-30T08:17:21.359Z,3.70
2022-08-30T08:20:24.947Z,3.72
2022-08-30T08:23:28.117Z,3.25
2022-08-30T08:26:30.284Z,3.50
2022-08-30T08:29:33.113Z,4.20
2022-08-30T08:32:35.344Z,3.90
2022-08-30T08:35:37.743Z,4.10
2022-08-30T08:38:39.990Z,3.50
2022-08-30T08:41:54.428Z,3.55
2022-08-30T08:45:14.541Z,3.40
2022-08-30T08:48:45.619Z,3.67
2022-08-30T08:52:14.040Z,3.80
2022-08-30T08:55:20.927Z,3.87
2022-08-30T08:58:26.710Z,3.83
2022-08-30T09:01:30.869Z,3.65
2022-08-30T09:04:36.458Z,3.45
2022-08-30T09:07:43.881Z,4.00
2022-08-30T09:10:58.400Z,4.55
2022-08-30T09:14:01.314Z,3.40
2022-08-30T09:17:10.186Z,3.55
2022-08-30T09:20:12.617Z,3.45
2022-08-30T09:23:28.327Z,3.90
2022-08-30T09:26:36.547Z,3.70
2022-08-30T09:29:50.597Z,3.67
2022-08-30T09:32:55.085Z,3.83
2022-08-30T09:36:09.135Z,3.53
2022-08-30T09:39:34.448Z,3.78
2022-08-30T09:42:37.233Z,3.78
2022-08-30T09:45:43.138Z,3.40
2022-08-30T09:48:46.119Z,3.62
2022-08-30T09:51:55.217Z,4.03
2022-08-30T09:55:32.229Z,3.58
2022-08-30T09:59:07.336Z,3.08
2022-08-30T10:02:28.439Z,3.67
2022-08-30T10:05:54.314Z,3.62
2022-08-30T10:09:09.152Z,3.80
2022-08-30T10:12:36.171Z,4.00
2022-08-30T10:15:51.579Z,3.42
2022-08-30T10:19:02.800Z,4.12
2022-08-30T10:22:28.115Z,3.75
2022-08-30T10:25:43.986Z,3.67
2022-08-30T10:28:50.465Z,3.60
2022-08-30T10:32:15.021Z,3.50
2022-08-30T10:35:24.867Z,3.60
2022-08-30T10:38:37.092Z,3.65
2022-08-30T10:42:00.196Z,3.85
2022-08-30T10:45:12.117Z,3.75
2022-08-30T10:48:32.500Z,4.10
2022-08-30T10:51:44.808Z,4.07
2022-08-30T10:55:09.738Z,4.15
2022-08-30T10:58:15.829Z,3.92
2022-08-30T11:01:28.297Z,4.25
2022-08-30T11:05:01.359Z,3.55
2022-08-30T11:08:25.660Z,4.20
2022-08-30T11:11:50.518Z,3.80
2022-08-30T11:14:53.806Z,3.75
2022-08-30T11:17:58.658Z,3.70
2022-08-30T11:21:39.907Z,3.72
2022-08-30T11:24:57.633Z,3.65
2022-08-30T11:27:59.818Z,3.67
2022-08-30T11:31:11.711Z,4.00
2022-08-30T11:34:46.761Z,4.12
2022-08-30T11:37:49.465Z,3.87
2022-08-30T11:41:10.665Z,3.40
2022-08-30T11:44:22.783Z,4.00
2022-08-30T11:47:54.362Z,3.53
2022-08-30T11:51:12.952Z,3.35
2022-08-30T11:54:39.407Z,3.62
2022-08-30T11:57:52.658Z,3.72
2022-08-30T12:01:50.838Z,4.20
2022-08-30T12:04:50.058Z,3.80
2022-08-30T12:08:00.877Z,3.62
2022-08-30T12:11:09.040Z,3.58
2022-08-30T12:14:32.267Z,3.95
2022-08-30T12:18:05.526Z,3.55
2022-08-30T12:21:28.759Z,4.03
2022-08-30T12:24:40.691Z,3.55
2022-08-30T12:27:55.530Z,3.37
2022-08-30T12:31:16.794Z,3.42
2022-08-30T12:38:01.758Z,4.03
2022-08-30T12:41:05.818Z,3.28
2022-08-30T12:44:20.843Z,3.85
2022-08-30T12:47:46.231Z,3.33
2022-08-30T12:50:53.680Z,3.47
2022-08-30T12:54:05.904Z,3.70
2022-08-30T12:57:38.271Z,3.42
2022-08-30T13:00:43.031Z,3.22
2022-08-30T13:04:28.756Z,3.42
2022-08-30T13:07:36.109Z,3.70
2022-08-30T13:10:50.188Z,3.12
2022-08-30T13:13:54.946Z,3.22
2022-08-30T13:17:24.434Z,3.40
2022-08-30T13:20:26.606Z,3.45
2022-08-30T13:23:29.141Z,3.40
2022-08-30T13:26:37.728Z,3.30
2022-08-30T13:29:42.456Z,3.45
2022-08-30T13:32:45.690Z,3.50
2022-08-30T13:35:48.162Z,3.92
2022-08-30T13:38:51.084Z,3.00
2022-08-30T13:41:54.630Z,3.50
2022-08-30T13:44:58.642Z,3.58
2022-08-30T13:48:01.558Z,3.42
2022-08-30T13:51:04.181Z,2.92
2022-08-30T13:54:06.895Z,3.60
2022-08-30T13:57:09.804Z,3.15
2022-08-30T14:00:19.363Z,3.37
2022-08-30T14:03:22.349Z,3.33
2022-08-30T14:06:33.677Z,3.62
2022-08-30T14:09:36.799Z,3.50
2022-08-30T14:12:58.857Z,2.78
2022-08-30T14:19:28.383Z,3.58
2022-08-30T14:22:30.962Z,3.37
2022-08-30T14:25:34.117Z,3.08
2022-08-30T14:28:36.572Z,3.67
2022-08-30T14:31:40.354Z,4.07
2022-08-30T14:34:43.106Z,3.42
2022-08-30T14:37:45.636Z,3.42
2022-08-30T14:40:48.186Z,3.72
2022-08-30T14:43:51.212Z,3.35
2022-08-30T14:46:54.359Z,3.60
2022-08-30T14:49:59.014Z,4.90
2022-08-30T14:53:01.490Z,3.87
2022-08-30T14:56:09.344Z,3.30
2022-08-30T14:59:12.154Z,3.45
2022-08-30T15:02:15.577Z,3.65
2022-08-30T15:05:18.180Z,3.70
2022-08-30T15:08:22.318Z,3.55
2022-08-30T15:11:29.672Z,3.42
2022-08-30T15:14:32.592Z,3.60
2022-08-30T15:17:35.002Z,3.65
2022-08-30T15:20:37.804Z,3.60
2022-08-30T15:23:40.931Z,4.28
2022-08-30T15:26:44.101Z,3.87
2022-08-30T15:29:46.524Z,3.45
2022-08-30T15:32:49.338Z,4.07
2022-08-30T15:35:52.360Z,3.60
2022-08-30T15:38:55.785Z,3.80
2022-08-30T15:42:01.163Z,3.87
2022-08-30T15:45:04.207Z,3.10
2022-08-30T15:48:09.873Z,3.67
2022-08-30T15:51:12.843Z,3.55
2022-08-30T15:54:20.310Z,3.15
2022-08-30T15:57:23.471Z,3.65
2022-08-30T16:00:26.495Z,3.20
2022-08-30T16:03:28.926Z,3.35
2022-08-30T16:06:37.145Z,3.12
2022-08-30T16:09:40.578Z,2.97
2022-08-30T16:12:43.649Z,3.20
2022-08-30T16:15:46.125Z,3.08
2022-08-30T16:18:54.233Z,3.37
2022-08-30T16:21:58.549Z,3.37
2022-08-30T16:25:00.728Z,3.17
2022-08-30T16:28:04.214Z,3.33
2022-08-30T16:31:07.792Z,3.10
2022-08-30T16:34:11.471Z,3.40
2022-08-30T16:37:13.619Z,3.00
2022-08-30T16:40:16.065Z,3.25
2022-08-30T16:43:19.748Z,2.70
2022-08-30T16:46:27.132Z,3.33
2022-08-30T16:49:30.177Z,3.40
2022-08-30T16:52:32.669Z,3.22
2022-08-30T16:55:38.463Z,3.15
2022-08-30T16:58:42.190Z,3.05
2022-08-30T17:01:44.941Z,2.75
2022-08-30T17:04:52.315Z,2.85
2022-08-30T17:10:58.102Z,2.83
2022-08-30T17:14:01.572Z,2.90
2022-08-30T17:17:04.444Z,2.90
2022-08-30T17:20:08.482Z,2.78
2022-08-30T17:23:11.276Z,2.67
2022-08-30T17:26:13.634Z,2.80
2022-08-30T17:29:16.125Z,2.42
2022-08-30T17:32:18.373Z,2.53
2022-08-30T17:35:21.163Z,3.05
2022-08-30T17:38:23.496Z,2.53
2022-08-30T17:41:26.194Z,2.70
2022-08-30T17:44:33.209Z,2.72
2022-08-30T17:47:36.690Z,2.40
2022-08-30T17:50:38.938Z,2.70
2022-08-30T17:53:41.375Z,2.42
2022-08-30T17:56:44.266Z,3.12
2022-08-30T17:59:46.818Z,2.80
2022-08-30T18:02:49.615Z,2.78
2022-08-30T18:05:52.797Z,2.95
2022-08-30T18:08:54.943Z,2.33
2022-08-30T18:11:57.501Z,2.65
2022-08-30T18:14:59.941Z,2.60
2022-08-30T18:18:04.278Z,2.87
2022-08-30T18:21:13.913Z,2.30
2022-08-30T18:24:16.854Z,2.67
2022-08-30T18:27:18.968Z,2.37
2022-08-30T18:30:21.676Z,2.87
2022-08-30T18:33:25.346Z,2.55
2022-08-30T18:36:28.250Z,2.28
2022-08-30T18:39:34.743Z,2.45
2022-08-30T18:42:38.019Z,2.60
2022-08-30T18:45:44.558Z,2.60
2022-08-30T18:48:48.679Z,2.72
2022-08-30T18:51:51.233Z,2.85
2022-08-30T18:54:54.342Z,2.70
2022-08-30T18:58:02.472Z,2.72
2022-08-30T19:01:05.284Z,2.65
2022-08-30T19:04:07.821Z,2.80
2022-08-30T19:07:12.883Z,2.87
2022-08-30T19:10:20.969Z,3.12
2022-08-30T19:13:23.704Z,2.95
2022-08-30T19:16:26.223Z,2.90
2022-08-30T19:19:28.690Z,2.85
2022-08-30T19:22:50.223Z,2.67
2022-08-30T19:25:54.916Z,2.95
2022-08-30T19:28:57.455Z,2.83
2022-08-30T19:31:59.959Z,2.90
2022-08-30T19:35:02.083Z,2.65
2022-08-30T19:38:05.093Z,2.92
2022-08-30T19:41:07.699Z,2.75
2022-08-30T19:44:10.645Z,3.80
2022-08-30T19:47:13.176Z,3.00
2022-08-30T19:50:16.987Z,2.55
2022-08-30T19:53:19.518Z,2.90
2022-08-30T19:56:23.445Z,2.85
2022-08-30T19:59:25.586Z,2.60
2022-08-30T20:02:28.077Z,2.58
2022-08-30T20:05:32.543Z,2.70
2022-08-30T20:08:35.038Z,2.70
2022-08-30T20:11:38.851Z,2.58
2022-08-30T20:14:42.729Z,2.42
2022-08-30T20:18:03.403Z,2.53
2022-08-30T20:21:13.459Z,2.70
2022-08-30T20:24:16.308Z,2.75
2022-08-30T20:27:18.569Z,2.55
2022-08-30T20:30:21.951Z,2.95
2022-08-30T20:33:25.034Z,2.45
2022-08-30T20:36:27.419Z,2.53
2022-08-30T20:39:29.726Z,2.47
2022-08-30T20:42:32.225Z,2.65
2022-08-30T20:45:34.575Z,2.83
2022-08-30T20:48:38.129Z,2.58
2022-08-30T20:51:40.957Z,2.33
2022-08-30T20:54:44.331Z,3.05
2022-08-30T20:57:46.519Z,2.78
2022-08-30T21:00:50.682Z,2.50
2022-08-30T21:03:53.094Z,2.87
2022-08-30T21:06:56.007Z,3.03
2022-08-30T21:09:58.635Z,3.05
2022-08-30T21:13:01.169Z,3.03
2022-08-30T21:16:03.951Z,3.03
2022-08-30T21:19:06.639Z,2.95
2022-08-30T21:22:08.979Z,2.55
2022-08-30T21:25:11.411Z,3.22
2022-08-30T21:28:13.612Z,3.00
2022-08-30T21:31:19.463Z,3.20
2022-08-30T21:34:21.877Z,3.05
2022-08-30T21:37:24.412Z,2.90
2022-08-30T21:40:27.293Z,3.08
2022-08-30T21:43:29.803Z,2.60
2022-08-30T21:46:33.549Z,2.95
2022-08-30T21:49:36.823Z,3.15
2022-08-30T21:52:39.005Z,3.80
2022-08-30T21:55:41.378Z,3.95
2022-08-30T21:58:46.150Z,3.15
2022-08-30T22:01:49.646Z,3.50
2022-08-30T22:04:52.207Z,4.32
2022-08-30T22:07:54.347Z,3.58
2022-08-30T22:10:56.755Z,4.68
2022-08-30T22:13:59.185Z,3.67
2022-08-30T22:17:03.510Z,3.58
2022-08-30T22:20:06.478Z,3.50
2022-08-30T22:23:10.082Z,4.10
2022-08-30T22:26:14.431Z,3.05
2022-08-30T22:29:16.957Z,4.03
2022-08-30T22:32:19.199Z,4.03
2022-08-30T22:35:21.740Z,4.00
2022-08-30T22:38:24.550Z,3.42
2022-08-30T22:41:31.477Z,3.60
2022-08-30T22:44:33.813Z,3.90
2022-08-30T22:47:36.278Z,3.45
2022-08-30T22:50:38.848Z,3.95
2022-08-30T22:53:41.435Z,3.78
2022-08-30T22:56:43.722Z,3.30
2022-08-30T22:59:46.175Z,3.75
2022-08-30T23:02:50.322Z,3.95
2022-08-30T23:05:52.813Z,3.83
2022-08-30T23:08:55.024Z,3.67
2022-08-30T23:11:57.851Z,4.57
2022-08-30T23:14:59.960Z,3.78
2022-08-30T23:18:02.970Z,4.37
2022-08-30T23:21:12.464Z,4.32
2022-08-30T23:24:33.455Z,4.05
2022-08-30T23:27:54.149Z,3.97
2022-08-30T23:31:16.375Z,3.87
2022-08-30T23:34:37.297Z,3.70
2022-08-30T23:37:58.742Z,3.55
2022-08-30T23:41:19.739Z,3.67
2022-08-30T23:44:40.557Z,3.67
2022-08-30T23:48:01.540Z,3.90
2022-08-30T23:51:23.338Z,3.15
2022-08-30T23:54:44.248Z,3.53
2022-08-30T23:58:05.033Z,3.58
